Time;durP1;ratioP1;P1;durP2;ratioP2;P2;SDS_P1;SDS_P2;PMS_P1;PMS_P2;Temp;Humidity;BMP_temperature;BMP_pressure;BME280_temperature;BME280_humidity;BME280_pressure;Samples;Min_cycle;Max_cycle;Signal;HPM_P1;HPM_P2
2021/04/24 00:06:26;;;;;;;2.67;1.65;;;6.10;99.90;;;;;;4988064;28;20223;-83
2021/04/24 00:09:48;;;;;;;3.72;1.80;;;6.00;99.90;;;;;;4986460;28;20191;-84
2021/04/24 00:13:31;;;;;;;2.55;1.42;;;6.00;99.90;;;;;;4982528;28;20226;-83
2021/04/24 00:16:35;;;;;;;9.82;1.60;;;6.10;99.90;;;;;;4983531;28;20286;-83
2021/04/24 00:19:12;;;;;;;4.75;2.20;;;6.10;99.90;;;;;;4981694;28;20198;-83
2021/04/24 00:21:45;;;;;;;1.38;1.10;;;6.20;99.90;;;;;;4981439;28;20168;-84
2021/04/24 00:24:34;;;;;;;2.38;1.42;;;6.20;99.90;;;;;;4980587;28;20211;-84
2021/04/24 00:27:06;;;;;;;2.38;1.92;;;6.20;99.90;;;;;;4982148;28;20176;-85
2021/04/24 00:29:35;;;;;;;5.82;1.80;;;6.20;99.90;;;;;;4982406;28;20187;-84
2021/04/24 00:32:10;;;;;;;2.38;1.60;;;6.20;99.90;;;;;;4981875;28;20242;-85
2021/04/24 00:34:51;;;;;;;2.38;2.17;;;6.30;99.90;;;;;;4981601;28;20248;-84
2021/04/24 00:37:43;;;;;;;5.85;2.15;;;6.30;99.90;;;;;;4982299;28;20172;-85
2021/04/24 00:43:03;;;;;;;1.92;1.50;;;6.30;99.90;;;;;;4980600;28;20233;-85
2021/04/24 00:45:33;;;;;;;5.03;2.17;;;6.20;99.90;;;;;;4980483;28;20199;-86
2021/04/24 00:48:01;;;;;;;3.80;1.92;;;6.10;99.90;;;;;;4980976;28;20705;-85
2021/04/24 00:50:31;;;;;;;7.60;1.92;;;6.10;99.90;;;;;;4983282;28;20219;-84
2021/04/24 00:52:59;;;;;;;8.13;2.47;;;6.00;99.90;;;;;;4982698;28;20225;-85
2021/04/24 00:55:27;;;;;;;2.20;1.80;;;6.00;99.90;;;;;;4983902;28;20230;-85
2021/04/24 00:57:55;;;;;;;3.10;2.20;;;5.90;99.90;;;;;;4984960;28;20186;-85
2021/04/24 01:00:24;;;;;;;3.83;1.55;;;5.90;99.90;;;;;;4984214;28;20180;-83
2021/04/24 01:02:53;;;;;;;1.73;1.30;;;5.80;99.90;;;;;;4983505;28;20226;-84
2021/04/24 01:05:23;;;;;;;7.22;2.70;;;5.80;99.90;;;;;;4984061;28;20182;-84
2021/04/24 01:07:50;;;;;;;3.10;2.13;;;5.70;99.90;;;;;;4982307;28;20518;-84
2021/04/24 01:14:30;;;;;;;2.08;1.52;;;5.60;99.90;;;;;;4962654;29;20198;-84
2021/04/24 01:16:58;;;;;;;4.85;1.65;;;5.50;99.90;;;;;;4970915;28;20212;-84
2021/04/24 01:19:26;;;;;;;4.13;2.35;;;5.50;99.90;;;;;;4964200;28;20586;-84
2021/04/24 01:22:03;;;;;;;7.15;2.03;;;5.50;99.90;;;;;;4972189;28;20267;-84
2021/04/24 01:24:41;;;;;;;2.85;1.80;;;5.40;99.90;;;;;;4974173;28;20199;-83
2021/04/24 01:27:10;;;;;;;3.85;2.40;;;5.30;99.90;;;;;;4973594;29;20171;-84
2021/04/24 01:29:42;;;;;;;3.50;2.10;;;5.30;99.90;;;;;;4974378;28;20173;-84
2021/04/24 01:32:11;;;;;;;6.05;2.42;;;5.30;99.90;;;;;;4972542;28;20228;-84
2021/04/24 01:34:40;;;;;;;3.10;1.85;;;5.30;99.90;;;;;;4975118;28;20177;-85
2021/04/24 01:37:13;;;;;;;2.95;1.88;;;5.20;99.90;;;;;;4967531;28;20188;-86
2021/04/24 01:39:45;;;;;;;3.15;2.00;;;5.20;99.90;;;;;;4965574;28;20598;-84
2021/04/24 01:42:12;;;;;;;4.13;2.78;;;5.10;99.90;;;;;;4965171;29;20207;-84
2021/04/24 01:44:40;;;;;;;2.90;1.95;;;5.10;99.90;;;;;;4970757;28;20645;-84
2021/04/24 01:47:07;;;;;;;4.78;2.30;;;5.10;99.90;;;;;;4973616;28;20192;-85
2021/04/24 01:49:35;;;;;;;8.75;3.17;;;5.10;99.90;;;;;;4960905;28;20203;-84
2021/04/24 01:52:04;;;;;;;5.60;2.85;;;5.00;99.90;;;;;;4962813;28;20200;-85
2021/04/24 01:54:32;;;;;;;7.80;2.88;;;5.00;99.90;;;;;;4972545;28;20195;-85
2021/04/24 01:57:00;;;;;;;5.28;3.00;;;5.00;99.90;;;;;;4966370;29;20199;-85
2021/04/24 01:59:35;;;;;;;4.30;2.25;;;5.00;99.90;;;;;;4962634;28;20663;-85
2021/04/24 02:02:04;;;;;;;11.88;2.90;;;5.00;99.90;;;;;;4962280;28;20591;-85
2021/04/24 02:04:34;;;;;;;4.43;2.83;;;4.90;99.90;;;;;;4962923;29;20219;-84
2021/04/24 02:07:04;;;;;;;4.82;2.47;;;4.90;99.90;;;;;;4961447;29;20192;-84
2021/04/24 02:09:33;;;;;;;6.57;2.85;;;4.80;99.90;;;;;;4962861;29;20199;-84
2021/04/24 02:12:16;;;;;;;4.43;2.58;;;4.80;99.90;;;;;;4964510;28;20216;-85
2021/04/24 02:14:56;;;;;;;5.20;2.53;;;4.70;99.90;;;;;;4962957;28;20675;-85
2021/04/24 02:17:32;;;;;;;4.55;2.80;;;4.70;99.90;;;;;;4945244;29;20204;-85
2021/04/24 02:20:18;;;;;;;3.70;2.70;;;4.70;99.90;;;;;;4962039;29;20188;-84
2021/04/24 02:22:59;;;;;;;10.98;3.33;;;4.70;99.90;;;;;;4960619;28;20230;-84
2021/04/24 02:25:35;;;;;;;4.03;2.83;;;4.80;99.90;;;;;;4964972;29;20210;-84
2021/04/24 02:28:19;;;;;;;6.97;2.65;;;4.70;99.90;;;;;;4964729;28;20220;-84
2021/04/24 02:30:47;;;;;;;9.60;4.03;;;4.70;99.90;;;;;;4960907;29;20211;-84
2021/04/24 02:33:14;;;;;;;3.65;2.42;;;4.70;99.90;;;;;;4963183;28;20397;-84
2021/04/24 02:35:45;;;;;;;4.28;2.65;;;4.70;99.90;;;;;;4963116;28;20223;-83
2021/04/24 02:38:17;;;;;;;2.42;1.92;;;4.70;99.90;;;;;;4964409;29;20190;-84
2021/04/24 02:40:49;;;;;;;5.50;3.75;;;4.70;99.90;;;;;;4964380;28;20196;-84
2021/04/24 02:43:17;;;;;;;6.20;2.33;;;4.70;99.90;;;;;;4962664;28;20222;-84
2021/04/24 02:45:45;;;;;;;5.43;2.53;;;4.70;99.90;;;;;;4963635;29;20271;-84
2021/04/24 02:48:13;;;;;;;5.38;2.30;;;4.60;99.90;;;;;;4963047;28;20188;-84
2021/04/24 02:50:41;;;;;;;4.47;2.10;;;4.50;99.90;;;;;;4966571;28;20611;-84
2021/04/24 02:53:11;;;;;;;7.03;3.72;;;4.50;99.90;;;;;;4964714;28;20244;-84
2021/04/24 02:55:39;;;;;;;9.35;3.92;;;4.40;99.90;;;;;;4965250;28;20279;-84
2021/04/24 02:58:08;;;;;;;7.40;3.15;;;4.40;99.90;;;;;;4965398;28;20896;-82
2021/04/24 03:00:42;;;;;;;3.90;2.83;;;4.40;99.90;;;;;;4967626;28;20180;-83
2021/04/24 03:03:14;;;;;;;6.97;2.58;;;4.40;99.90;;;;;;4964072;28;20720;-84
2021/04/24 03:05:43;;;;;;;4.53;2.50;;;4.30;99.90;;;;;;4964170;28;20184;-83
2021/04/24 03:08:16;;;;;;;5.82;3.42;;;4.30;99.90;;;;;;4964569;28;20641;-84
2021/04/24 03:10:51;;;;;;;8.65;4.25;;;4.20;99.90;;;;;;4964879;29;20224;-84
2021/04/24 03:13:19;;;;;;;8.48;2.65;;;4.20;99.90;;;;;;4965994;28;20279;-84
2021/04/24 03:15:50;;;;;;;20.02;4.10;;;4.20;99.90;;;;;;4966119;28;20279;-84
2021/04/24 03:18:18;;;;;;;4.22;3.75;;;4.20;99.90;;;;;;4971865;28;20169;-83
2021/04/24 03:20:49;;;;;;;10.70;3.58;;;4.20;99.90;;;;;;4975154;28;20160;-83
2021/04/24 03:23:16;;;;;;;3.45;2.25;;;4.20;99.90;;;;;;4974702;28;20235;-84
2021/04/24 03:25:45;;;;;;;8.38;3.80;;;4.10;99.90;;;;;;4975023;29;20222;-83
2021/04/24 03:28:17;;;;;;;3.75;2.95;;;4.00;99.90;;;;;;4973980;28;20188;-84
2021/04/24 03:30:46;;;;;;;5.82;3.25;;;4.00;99.90;;;;;;4965842;28;20236;-85
2021/04/24 03:33:14;;;;;;;5.55;4.18;;;3.90;99.90;;;;;;4965235;28;20527;-84
2021/04/24 03:35:51;;;;;;;4.07;3.50;;;3.90;99.90;;;;;;4965051;29;20258;-85
2021/04/24 03:38:19;;;;;;;9.13;2.85;;;3.90;99.90;;;;;;4965847;28;20191;-85
2021/04/24 03:40:50;;;;;;;9.38;3.10;;;3.90;99.90;;;;;;4965289;28;20204;-84
2021/04/24 03:43:18;;;;;;;6.10;3.20;;;3.80;99.90;;;;;;4965976;28;20237;-86
2021/04/24 03:46:33;;;;;;;5.15;2.90;;;3.80;99.90;;;;;;4963006;29;20239;-84
2021/04/24 03:49:40;;;;;;;5.32;2.40;;;3.80;99.90;;;;;;4964808;28;20200;-84
2021/04/24 03:52:19;;;;;;;10.18;3.35;;;3.80;99.90;;;;;;4964266;28;20658;-84
2021/04/24 03:54:50;;;;;;;8.88;3.17;;;3.80;99.90;;;;;;4965519;28;20184;-84
2021/04/24 03:57:17;;;;;;;8.25;4.22;;;3.80;99.90;;;;;;4965923;29;20200;-84
2021/04/24 03:59:45;;;;;;;6.55;2.40;;;3.80;99.90;;;;;;4973168;28;20224;-84
2021/04/24 04:02:12;;;;;;;9.88;4.05;;;3.80;99.90;;;;;;4972965;28;20219;-83
2021/04/24 04:04:41;;;;;;;13.98;3.60;;;3.90;99.90;;;;;;4973949;28;20195;-84
2021/04/24 04:07:11;;;;;;;9.38;3.70;;;3.90;99.90;;;;;;4972048;29;20196;-85
2021/04/24 04:09:38;;;;;;;9.27;3.53;;;3.90;99.90;;;;;;4965046;29;20192;-85
2021/04/24 04:12:06;;;;;;;7.88;4.05;;;4.00;99.90;;;;;;4962763;28;20219;-84
2021/04/24 04:14:33;;;;;;;10.10;3.72;;;4.20;99.90;;;;;;4963208;29;20187;-84
2021/04/24 04:17:04;;;;;;;5.45;4.13;;;4.50;99.90;;;;;;4958981;28;20294;-85
2021/04/24 04:19:31;;;;;;;5.35;3.22;;;4.90;99.90;;;;;;4971060;28;20204;-83
2021/04/24 04:22:00;;;;;;;4.78;3.50;;;5.10;99.90;;;;;;4962551;28;20215;-84
2021/04/24 04:24:27;;;;;;;6.35;3.28;;;4.90;99.90;;;;;;4963902;29;20195;-86
2021/04/24 04:26:55;;;;;;;8.07;4.32;;;4.70;99.90;;;;;;4964012;28;20271;-84
2021/04/24 04:29:25;;;;;;;6.63;3.70;;;4.50;99.90;;;;;;4963990;28;20180;-83
2021/04/24 04:32:04;;;;;;;7.80;4.15;;;4.50;99.90;;;;;;4964678;28;20630;-84
2021/04/24 04:34:32;;;;;;;10.00;4.03;;;4.40;99.90;;;;;;4964628;29;20191;-85
2021/04/24 04:37:00;;;;;;;3.38;2.88;;;4.30;99.90;;;;;;4964261;28;20192;-84
2021/04/24 04:39:30;;;;;;;6.50;3.28;;;4.30;99.90;;;;;;4964403;28;20581;-84
2021/04/24 04:41:57;;;;;;;5.85;2.60;;;4.30;99.90;;;;;;4964261;28;20215;-84
2021/04/24 04:44:25;;;;;;;9.73;4.10;;;4.30;99.90;;;;;;4964297;28;20243;-83
2021/04/24 04:46:52;;;;;;;5.10;2.85;;;4.40;99.90;;;;;;4963068;28;20730;-84
2021/04/24 04:49:20;;;;;;;7.75;3.15;;;4.80;99.90;;;;;;4963790;28;20243;-84
2021/04/24 04:51:47;;;;;;;7.28;4.35;;;5.20;99.90;;;;;;4965747;28;20192;-83
2021/04/24 04:54:16;;;;;;;6.40;3.08;;;5.80;99.90;;;;;;4966004;28;20559;-84
2021/04/24 04:56:43;;;;;;;11.57;4.25;;;6.80;99.90;;;;;;4977140;28;20188;-82
2021/04/24 04:59:11;;;;;;;8.32;4.63;;;7.70;99.90;;;;;;4975001;28;20347;-83
2021/04/24 05:01:38;;;;;;;4.38;2.50;;;7.70;99.90;;;;;;4978790;28;20207;-84
2021/04/24 05:04:19;;;;;;;15.02;4.90;;;8.10;99.90;;;;;;4980076;28;20156;-83
2021/04/24 05:06:48;;;;;;;9.68;3.70;;;8.80;99.90;;;;;;4980335;28;20185;-84
2021/04/24 05:09:19;;;;;;;9.88;3.17;;;8.90;99.90;;;;;;4980290;28;20168;-84
2021/04/24 05:11:50;;;;;;;10.18;3.60;;;8.90;99.90;;;;;;4979728;28;20208;-83
2021/04/24 05:14:17;;;;;;;12.05;3.42;;;8.80;99.90;;;;;;4980508;28;20178;-84
2021/04/24 05:16:47;;;;;;;8.65;3.60;;;8.40;99.90;;;;;;4979719;28;20263;-84
2021/04/24 05:19:15;;;;;;;6.78;4.80;;;7.60;99.90;;;;;;4965431;28;20185;-85
2021/04/24 05:21:45;;;;;;;6.13;3.85;;;7.00;99.90;;;;;;4962906;28;20183;-84
2021/04/24 05:24:17;;;;;;;9.65;3.40;;;6.40;99.90;;;;;;4961086;28;20659;-84
2021/04/24 05:26:45;;;;;;;7.78;5.10;;;6.10;99.90;;;;;;4962135;28;20180;-85
2021/04/24 05:29:12;;;;;;;8.00;3.85;;;6.00;99.90;;;;;;4961199;29;20219;-84
2021/04/24 05:31:39;;;;;;;10.15;4.38;;;5.90;99.90;;;;;;4961263;28;20255;-84
2021/04/24 05:34:07;;;;;;;5.40;3.40;;;5.90;99.90;;;;;;4962815;28;20259;-84
2021/04/24 05:36:34;;;;;;;6.75;4.55;;;5.90;99.90;;;;;;4963259;28;20606;-84
2021/04/24 05:39:04;;;;;;;8.48;6.03;;;5.90;99.90;;;;;;4963960;28;20220;-84
2021/04/24 05:41:32;;;;;;;6.80;5.05;;;5.80;99.90;;;;;;4963417;29;20655;-85
2021/04/24 05:44:00;;;;;;;12.20;5.60;;;5.70;99.90;;;;;;4967341;28;20321;-84
2021/04/24 05:46:28;;;;;;;8.20;3.95;;;5.50;99.90;;;;;;4970172;28;20215;-84
2021/04/24 05:48:56;;;;;;;13.88;7.03;;;5.50;99.90;;;;;;4969461;28;20184;-85
2021/04/24 05:51:24;;;;;;;13.27;6.95;;;5.70;99.90;;;;;;4969002;28;20204;-85
2021/04/24 05:53:53;;;;;;;18.13;4.40;;;5.90;99.90;;;;;;4968716;28;20207;-84
2021/04/24 05:56:22;;;;;;;4.90;3.72;;;5.90;99.90;;;;;;4968723;28;20591;-84
2021/04/24 05:58:50;;;;;;;15.88;6.22;;;5.80;99.90;;;;;;4966130;28;20196;-84
2021/04/24 06:01:19;;;;;;;6.80;4.90;;;5.80;99.90;;;;;;4968371;28;20188;-84
2021/04/24 06:03:47;;;;;;;9.05;5.10;;;5.70;99.90;;;;;;4967956;28;20303;-84
2021/04/24 06:06:18;;;;;;;11.73;5.50;;;5.70;99.90;;;;;;4967697;28;20191;-84
2021/04/24 06:08:46;;;;;;;16.38;5.80;;;5.70;99.90;;;;;;4968315;28;20200;-84
2021/04/24 06:11:15;;;;;;;13.43;5.60;;;5.60;99.90;;;;;;4967825;28;20215;-83
2021/04/24 06:13:42;;;;;;;6.38;4.47;;;5.60;99.90;;;;;;4974088;29;20188;-83
2021/04/24 06:16:12;;;;;;;7.68;4.30;;;5.60;99.90;;;;;;4967741;29;20218;-84
2021/04/24 06:18:41;;;;;;;7.00;5.10;;;5.60;99.90;;;;;;4968034;28;20176;-84
2021/04/24 06:21:17;;;;;;;11.70;4.93;;;5.70;99.90;;;;;;4961844;28;20211;-84
2021/04/24 06:23:47;;;;;;;8.32;5.90;;;6.00;99.90;;;;;;4960777;28;20208;-84
2021/04/24 06:26:19;;;;;;;12.38;6.50;;;6.10;99.90;;;;;;4963009;28;20186;-84
2021/04/24 06:28:58;;;;;;;10.38;4.70;;;6.30;99.90;;;;;;4962208;28;20188;-84
2021/04/24 06:31:29;;;;;;;9.75;5.63;;;6.10;99.90;;;;;;4963928;28;20196;-84
2021/04/24 06:33:58;;;;;;;8.27;4.72;;;6.20;99.90;;;;;;4963616;28;20705;-85
2021/04/24 06:36:26;;;;;;;15.35;7.60;;;6.40;99.90;;;;;;4962756;28;20550;-83
2021/04/24 06:38:58;;;;;;;10.77;4.30;;;6.60;99.90;;;;;;4960603;29;20601;-85
2021/04/24 06:41:26;;;;;;;12.95;6.00;;;6.70;99.90;;;;;;4962067;28;20180;-84
2021/04/24 06:43:56;;;;;;;8.55;5.32;;;6.90;99.90;;;;;;4961137;28;20271;-84
2021/04/24 06:46:27;;;;;;;8.07;4.40;;;7.30;99.90;;;;;;4963010;28;20432;-85
2021/04/24 06:48:55;;;;;;;10.95;5.10;;;7.40;99.90;;;;;;4964474;28;20196;-83
2021/04/24 06:51:30;;;;;;;6.93;4.25;;;7.40;99.90;;;;;;4962181;29;20259;-84
2021/04/24 06:54:01;;;;;;;7.00;4.22;;;7.20;99.90;;;;;;4962663;29;20207;-84
2021/04/24 06:56:28;;;;;;;10.60;4.00;;;7.30;99.90;;;;;;4962449;28;20253;-84
2021/04/24 06:58:56;;;;;;;10.07;4.38;;;7.40;99.90;;;;;;4964021;28;20196;-83
2021/04/24 07:01:25;;;;;;;6.30;4.40;;;7.30;99.90;;;;;;4969355;28;20295;-84
2021/04/24 07:03:52;;;;;;;5.75;4.30;;;7.20;99.90;;;;;;4968739;28;20212;-84
2021/04/24 07:06:20;;;;;;;7.68;4.35;;;7.00;99.90;;;;;;4968575;28;20247;-84
2021/04/24 07:08:48;;;;;;;10.10;5.38;;;7.10;99.90;;;;;;4965361;28;20180;-84
2021/04/24 07:11:16;;;;;;;10.00;5.65;;;7.30;99.90;;;;;;4961517;28;20291;-86
2021/04/24 07:13:43;;;;;;;9.63;4.68;;;7.20;99.90;;;;;;4962292;28;20223;-85
2021/04/24 07:16:11;;;;;;;8.70;4.15;;;7.30;99.90;;;;;;4964127;28;20215;-85
2021/04/24 07:18:44;;;;;;;9.80;4.57;;;7.60;99.90;;;;;;4963320;29;20188;-84
2021/04/24 07:21:19;;;;;;;5.05;3.78;;;7.70;99.90;;;;;;4961576;28;20180;-83
2021/04/24 07:24:12;;;;;;;5.72;3.08;;;7.70;99.90;;;;;;4966344;28;20220;-84
2021/04/24 07:57:28;;;;;;;8.95;4.30;;;8.00;99.90;;;;;;4778292;30;20206;-85
2021/04/24 08:04:15;;;;;;;7.68;3.35;;;8.90;99.90;;;;;;4916140;29;20220;-68
2021/04/24 08:06:43;;;;;;;7.75;3.95;;;9.40;99.90;;;;;;4918296;29;20254;-68
2021/04/24 08:09:14;;;;;;;9.27;4.15;;;9.60;99.90;;;;;;4917368;29;20210;-69
2021/04/24 08:11:42;;;;;;;7.40;3.58;;;9.80;99.90;;;;;;4917342;29;20217;-69
2021/04/24 08:14:10;;;;;;;13.60;5.65;;;9.70;99.90;;;;;;4918719;29;20648;-69
2021/04/24 08:16:37;;;;;;;6.93;4.25;;;9.60;99.90;;;;;;4918108;29;20206;-68
2021/04/24 08:19:04;;;;;;;5.82;3.50;;;9.50;99.90;;;;;;4917381;29;20210;-69
2021/04/24 08:21:32;;;;;;;6.95;3.70;;;9.60;99.90;;;;;;4917279;29;20189;-69
2021/04/24 08:24:01;;;;;;;6.63;5.00;;;9.50;99.90;;;;;;4917638;29;20738;-70
2021/04/24 08:26:29;;;;;;;5.55;3.05;;;9.40;99.90;;;;;;4917434;29;20177;-71
2021/04/24 08:28:56;;;;;;;11.18;4.28;;;9.50;99.90;;;;;;4917509;29;20684;-66
2021/04/24 08:31:25;;;;;;;10.45;4.18;;;9.40;99.90;;;;;;4917397;29;20218;-69
2021/04/24 08:33:57;;;;;;;7.10;2.70;;;9.30;99.90;;;;;;4917163;29;20245;-68
2021/04/24 08:36:26;;;;;;;3.75;2.60;;;9.30;99.90;;;;;;4916859;29;20208;-68
2021/04/24 08:38:53;;;;;;;5.70;3.97;;;9.30;99.90;;;;;;4916839;29;20304;-68
2021/04/24 08:41:20;;;;;;;7.78;3.67;;;9.30;99.90;;;;;;4916968;29;20192;-68
2021/04/24 08:43:49;;;;;;;5.18;3.25;;;9.50;99.90;;;;;;4917084;29;20269;-69
2021/04/24 08:46:18;;;;;;;4.82;2.42;;;9.90;99.90;;;;;;4916111;29;20754;-70
2021/04/24 08:48:46;;;;;;;4.90;3.25;;;9.90;99.90;;;;;;4916570;29;20221;-69
2021/04/24 08:51:14;;;;;;;5.03;3.65;;;10.10;99.90;;;;;;4916638;29;20213;-70
2021/04/24 08:53:41;;;;;;;8.13;3.60;;;10.00;99.90;;;;;;4916477;29;20194;-68
2021/04/24 08:56:08;;;;;;;5.70;2.95;;;9.90;99.90;;;;;;4916821;29;20249;-68
2021/04/24 08:58:35;;;;;;;4.03;2.25;;;10.20;99.90;;;;;;4901307;29;20301;-69
2021/04/24 09:01:04;;;;;;;5.70;2.78;;;10.60;99.90;;;;;;4898288;29;20367;-71
2021/04/24 09:03:32;;;;;;;7.88;3.47;;;10.80;99.90;;;;;;4898035;29;20198;-66
2021/04/24 09:06:01;;;;;;;5.00;2.60;;;11.00;99.90;;;;;;4897940;29;20185;-68
2021/04/24 09:08:29;;;;;;;3.70;2.13;;;10.90;99.90;;;;;;4898555;29;20265;-69
2021/04/24 09:11:01;;;;;;;3.10;2.13;;;10.50;99.90;;;;;;4897991;29;20563;-67
2021/04/24 09:13:30;;;;;;;7.60;3.00;;;10.40;99.90;;;;;;4898759;29;20606;-67
2021/04/24 09:15:57;;;;;;;7.18;2.88;;;10.10;99.90;;;;;;4898252;29;20700;-69
2021/04/24 09:18:26;;;;;;;2.88;2.28;;;10.20;99.90;;;;;;4897614;29;20266;-69
2021/04/24 09:20:56;;;;;;;3.65;2.25;;;10.40;99.90;;;;;;4897575;29;20611;-68
2021/04/24 09:23:30;;;;;;;4.50;2.70;;;10.10;99.90;;;;;;4897277;29;20199;-70
2021/04/24 09:25:59;;;;;;;3.88;2.40;;;9.90;99.90;;;;;;4895427;29;20261;-71
2021/04/24 09:28:30;;;;;;;12.93;7.43;;;10.10;99.90;;;;;;4896978;29;20221;-68
2021/04/24 09:30:59;;;;;;;4.57;2.28;;;10.10;99.90;;;;;;4897492;29;20187;-70
2021/04/24 09:33:31;;;;;;;3.28;1.98;;;10.20;99.90;;;;;;4898293;29;20644;-70
2021/04/24 09:35:59;;;;;;;8.32;2.15;;;10.50;99.90;;;;;;4897961;29;20186;-69
2021/04/24 09:38:29;;;;;;;4.60;2.67;;;10.50;99.90;;;;;;4897689;29;20277;-69
2021/04/24 09:41:09;;;;;;;3.22;2.42;;;10.10;99.90;;;;;;4897487;29;20198;-69
2021/04/24 09:43:57;;;;;;;4.63;2.13;;;9.90;99.90;;;;;;4897442;29;20179;-68
2021/04/24 09:46:26;;;;;;;4.13;3.70;;;10.30;99.90;;;;;;4897314;29;20234;-68
2021/04/24 09:49:13;;;;;;;2.83;2.42;;;10.50;99.90;;;;;;4897093;29;20270;-69
2021/04/24 09:51:46;;;;;;;4.80;2.60;;;10.30;99.90;;;;;;4897022;29;20249;-68
2021/04/24 09:54:15;;;;;;;3.42;2.30;;;10.10;99.90;;;;;;4896943;29;20179;-69
2021/04/24 09:56:54;;;;;;;3.55;2.30;;;10.10;99.90;;;;;;4896976;29;20594;-67
2021/04/24 09:59:21;;;;;;;4.28;2.78;;;10.00;99.90;;;;;;4911193;29;20304;-69
2021/04/24 10:01:48;;;;;;;3.40;2.20;;;10.00;99.90;;;;;;4897167;29;20222;-70
2021/04/24 10:04:16;;;;;;;4.93;3.17;;;9.90;99.90;;;;;;4896861;29;20174;-68
2021/04/24 10:06:43;;;;;;;3.70;2.63;;;10.00;99.90;;;;;;4897149;29;20671;-70
2021/04/24 10:09:24;;;;;;;5.95;2.90;;;10.30;99.90;;;;;;4896784;29;20249;-69
2021/04/24 10:12:08;;;;;;;3.47;2.85;;;10.40;99.90;;;;;;4896781;29;20201;-68
2021/04/24 10:14:38;;;;;;;3.22;2.35;;;10.30;99.90;;;;;;4897036;29;20214;-69
2021/04/24 10:17:07;;;;;;;3.95;2.65;;;10.10;99.90;;;;;;4897140;29;20210;-69
2021/04/24 10:19:35;;;;;;;3.95;2.78;;;9.90;99.90;;;;;;4896788;29;20186;-70
2021/04/24 10:22:05;;;;;;;4.90;2.60;;;9.90;99.90;;;;;;4896869;29;20553;-70
2021/04/24 10:24:34;;;;;;;5.90;2.28;;;10.00;99.90;;;;;;4896712;29;20269;-71
2021/04/24 10:27:03;;;;;;;5.07;2.10;;;10.00;99.90;;;;;;4896803;29;20181;-71
2021/04/24 10:29:30;;;;;;;6.57;2.13;;;10.20;99.90;;;;;;4895595;29;20212;-71
2021/04/24 10:31:58;;;;;;;4.43;2.10;;;10.20;99.90;;;;;;4897387;29;20213;-73
2021/04/24 10:34:25;;;;;;;3.70;1.83;;;10.00;99.90;;;;;;4897225;29;20194;-71
2021/04/24 10:36:53;;;;;;;4.75;2.90;;;9.80;99.90;;;;;;4896588;29;20226;-69
2021/04/24 10:39:23;;;;;;;3.67;2.35;;;9.80;99.90;;;;;;4896660;29;20225;-69
2021/04/24 10:42:02;;;;;;;4.93;2.47;;;9.70;99.90;;;;;;4912935;29;20197;-71
2021/04/24 10:44:51;;;;;;;3.38;1.92;;;9.60;99.90;;;;;;4896294;29;20186;-70
2021/04/24 10:47:45;;;;;;;3.10;2.00;;;10.30;99.90;;;;;;4896513;29;20695;-70
2021/04/24 10:50:15;;;;;;;4.78;1.88;;;11.00;99.90;;;;;;4896714;29;20200;-69
2021/04/24 10:52:44;;;;;;;4.00;1.42;;;11.40;99.90;;;;;;4896224;29;20294;-69
2021/04/24 10:55:27;;;;;;;3.20;2.40;;;11.40;99.90;;;;;;4898861;29;20667;-69
2021/04/24 10:57:57;;;;;;;4.35;2.28;;;11.30;99.90;;;;;;4906918;29;20458;-69
2021/04/24 11:00:49;;;;;;;2.35;1.95;;;11.10;99.90;;;;;;4914898;29;20178;-69
2021/04/24 11:03:42;;;;;;;4.20;2.25;;;11.20;99.90;;;;;;4913831;29;20620;-71
2021/04/24 11:06:11;;;;;;;4.30;2.17;;;11.60;99.90;;;;;;4914915;29;20264;-68
2021/04/24 11:08:38;;;;;;;5.78;3.30;;;11.20;99.90;;;;;;4899637;29;20222;-69
2021/04/24 11:11:08;;;;;;;5.78;2.58;;;10.80;99.90;;;;;;4900122;29;20202;-71
2021/04/24 11:13:39;;;;;;;3.92;2.50;;;10.70;99.90;;;;;;4900107;29;20202;-69
2021/04/24 11:16:09;;;;;;;4.03;2.90;;;10.60;99.90;;;;;;4906288;29;20702;-68
2021/04/24 11:18:39;;;;;;;4.45;1.98;;;10.90;99.90;;;;;;4918221;29;20221;-71
2021/04/24 11:21:08;;;;;;;3.60;2.30;;;11.20;99.90;;;;;;4910749;29;20189;-67
2021/04/24 11:23:47;;;;;;;3.90;2.53;;;11.20;99.90;;;;;;4916904;29;20193;-69
2021/04/24 11:26:19;;;;;;;4.15;2.55;;;11.00;99.90;;;;;;4917740;29;20215;-68
2021/04/24 11:29:07;;;;;;;4.25;3.33;;;11.10;99.90;;;;;;4917790;29;20224;-68
2021/04/24 11:32:02;;;;;;;4.30;2.60;;;11.00;99.90;;;;;;4917980;29;20575;-70
2021/04/24 11:34:38;;;;;;;3.72;2.40;;;10.90;99.90;;;;;;4918419;29;20186;-70
2021/04/24 11:37:32;;;;;;;9.40;2.10;;;10.80;99.90;;;;;;4918097;29;20189;-69
2021/04/24 11:40:20;;;;;;;3.65;2.67;;;10.80;99.90;;;;;;4918844;29;20897;-69
2021/04/24 11:43:07;;;;;;;3.83;2.23;;;10.70;99.90;;;;;;4932909;29;20683;-70
2021/04/24 11:46:05;;;;;;;3.45;1.85;;;10.90;99.90;;;;;;4918582;29;20408;-69
2021/04/24 11:49:02;;;;;;;4.88;2.42;;;11.00;99.90;;;;;;4919494;29;20934;-70
2021/04/24 11:51:41;;;;;;;3.60;2.38;;;11.00;99.90;;;;;;4918891;29;20193;-69
2021/04/24 11:54:10;;;;;;;3.20;2.40;;;10.90;99.90;;;;;;4919254;29;20182;-71
2021/04/24 11:56:39;;;;;;;3.70;2.10;;;10.90;99.90;;;;;;4919301;29;20193;-71
2021/04/24 11:59:06;;;;;;;3.22;2.45;;;11.00;99.90;;;;;;4918923;29;20229;-70
2021/04/24 12:01:34;;;;;;;2.65;2.00;;;11.00;99.90;;;;;;4918680;29;20237;-70
2021/04/24 12:04:02;;;;;;;3.75;3.10;;;10.80;99.90;;;;;;4920285;29;20205;-70
2021/04/24 12:06:33;;;;;;;4.90;2.35;;;10.60;99.90;;;;;;4920115;29;20225;-68
2021/04/24 12:09:02;;;;;;;4.32;2.00;;;10.80;99.90;;;;;;4919674;29;20241;-70
2021/04/24 12:11:29;;;;;;;3.50;2.22;;;11.00;99.90;;;;;;4917658;29;20209;-69
2021/04/24 12:13:57;;;;;;;4.97;1.93;;;11.30;99.90;;;;;;4916317;29;20651;-71
2021/04/24 12:16:40;;;;;;;4.83;3.20;;;11.30;99.90;;;;;;4917455;29;20445;-67
2021/04/24 12:19:31;;;;;;;4.17;1.50;;;11.20;99.90;;;;;;4917484;29;20453;-71
2021/04/24 12:22:10;;;;;;;2.72;1.90;;;11.20;99.90;;;;;;4917363;29;20516;-68
2021/04/24 12:24:53;;;;;;;4.53;2.22;;;11.20;99.90;;;;;;4917853;29;20276;-69
2021/04/24 12:27:29;;;;;;;4.50;1.75;;;11.20;99.90;;;;;;4953184;23;20228;-69
2021/04/24 12:29:58;;;;;;;3.08;2.33;;;11.30;99.90;;;;;;4936592;29;20188;-68
2021/04/24 12:32:32;;;;;;;3.93;2.10;;;11.60;99.90;;;;;;4936127;29;20247;-69
2021/04/24 12:35:14;;;;;;;4.68;2.85;;;11.60;99.90;;;;;;4936639;29;20490;-69
2021/04/24 12:37:43;;;;;;;2.38;2.00;;;11.40;99.90;;;;;;4937100;29;20244;-69
2021/04/24 12:40:17;;;;;;;5.38;2.22;;;11.20;99.90;;;;;;4936387;29;20200;-70
2021/04/24 12:42:45;;;;;;;4.28;1.83;;;11.10;99.90;;;;;;4936496;29;20192;-69
2021/04/24 12:45:23;;;;;;;3.30;2.23;;;11.10;99.90;;;;;;4935143;29;20781;-70
2021/04/24 12:47:53;;;;;;;3.03;1.73;;;11.30;99.90;;;;;;4936361;29;20426;-68
2021/04/24 12:50:26;;;;;;;3.88;2.25;;;11.50;99.90;;;;;;4936984;29;20519;-69
2021/04/24 12:52:56;;;;;;;4.87;2.60;;;11.80;99.90;;;;;;4936911;29;20248;-70
2021/04/24 12:55:29;;;;;;;4.50;2.10;;;12.00;99.90;;;;;;4936774;29;20831;-70
2021/04/24 12:57:59;;;;;;;3.13;1.67;;;12.30;99.90;;;;;;4936219;29;20547;-69
2021/04/24 13:00:39;;;;;;;3.83;1.93;;;12.50;99.90;;;;;;4937093;29;20399;-68
2021/04/24 13:03:24;;;;;;;4.93;1.67;;;12.60;99.90;;;;;;4936688;29;20463;-69
2021/04/24 13:05:52;;;;;;;2.97;1.70;;;12.00;99.90;;;;;;4936174;29;20441;-69
2021/04/24 13:08:19;;;;;;;3.40;2.00;;;12.10;99.90;;;;;;4936716;29;20761;-70
2021/04/24 13:10:47;;;;;;;3.30;2.25;;;11.70;99.90;;;;;;4936456;29;20399;-66
2021/04/24 13:13:19;;;;;;;2.10;1.33;;;11.30;99.90;;;;;;4936135;29;20633;-69
2021/04/24 13:15:48;;;;;;;6.30;2.03;;;11.10;99.90;;;;;;4937622;29;20409;-70
2021/04/24 13:18:28;;;;;;;3.95;2.05;;;11.10;99.90;;;;;;4935679;29;20217;-68
2021/04/24 13:20:57;;;;;;;4.88;2.38;;;11.10;99.90;;;;;;4935997;29;20241;-69
2021/04/24 13:23:24;;;;;;;4.17;2.60;;;11.40;99.90;;;;;;4934919;29;20195;-71
2021/04/24 13:25:52;;;;;;;7.10;2.93;;;11.60;99.90;;;;;;4934847;29;20463;-70
2021/04/24 13:28:29;;;;;;;2.80;2.20;;;12.00;99.90;;;;;;4935614;29;20448;-69
2021/04/24 13:30:59;;;;;;;2.70;1.90;;;12.60;99.90;;;;;;4936138;29;20423;-70
2021/04/24 13:33:36;;;;;;;2.60;1.70;;;12.80;99.90;;;;;;4935356;29;20952;-70
2021/04/24 13:36:04;;;;;;;6.03;2.80;;;12.90;99.90;;;;;;4935831;29;20402;-68
2021/04/24 13:38:34;;;;;;;3.37;2.07;;;12.70;99.90;;;;;;4935827;29;21010;-69
2021/04/24 13:41:16;;;;;;;3.33;1.60;;;12.90;99.90;;;;;;4935987;29;20407;-69
2021/04/24 13:43:44;;;;;;;5.53;1.87;;;13.30;99.90;;;;;;4935831;29;20419;-69
2021/04/24 13:46:23;;;;;;;4.40;1.80;;;13.00;99.90;;;;;;4935428;29;20507;-68
2021/04/24 13:48:51;;;;;;;1.97;1.07;;;13.00;99.90;;;;;;4935692;29;20451;-68
2021/04/24 13:51:18;;;;;;;1.87;1.33;;;12.80;99.90;;;;;;4936023;29;20425;-68
2021/04/24 13:53:46;;;;;;;2.13;1.93;;;12.70;99.90;;;;;;4935444;29;21072;-68
2021/04/24 13:56:14;;;;;;;5.40;2.30;;;12.30;99.90;;;;;;4941562;29;20831;-67
2021/04/24 13:58:41;;;;;;;2.43;1.37;;;12.10;99.90;;;;;;4939771;29;20495;-69
2021/04/24 14:01:08;;;;;;;3.87;1.77;;;12.10;99.90;;;;;;4934661;29;20422;-68
2021/04/24 14:03:36;;;;;;;5.60;1.70;;;11.90;99.90;;;;;;4935297;29;20407;-67
2021/04/24 14:06:05;;;;;;;3.17;1.47;;;11.80;99.90;;;;;;4936037;29;20494;-69